KCYS/CYS METAR and TAF weather

Enter ICAO airport designator
Station Type Date Time Source
KCYS METAR 2021/05/11 21:53 UTC NOAA

KCYS 112153Z 16009KT 9SM OVC003 01/01 A3024 RMK AO2 SNE15 SLP257 P0000 T00110006


Station Type Date Time Source
KCYS Decoded METAR 2021/05/11 21:53 UTC NOAA

CHEYENNE AIRPORT, WY, United States (KCYS) 41-09N 104-48W 1865M
May 11, 2021 - 05:53 PM EDT / 2021.05.11 2153 UTC
Wind: from the SSE (160 degrees) at 10 MPH (9 KT):0
Visibility: 9 mile(s):0
Sky conditions: overcast
Precipitation last hour: A trace
Temperature: 34.0 F (1.1 C)
Windchill: 26 F (-3 C):1
Dew Point: 33.1 F (0.6 C)
Relative Humidity: 96%
Pressure (altimeter): 30.24 in. Hg (1024 hPa)
ob: KCYS 112153Z 16009KT 9SM OVC003 01/01 A3024 RMK AO2 SNE15 SLP257 P0000 T00110006
cycle: 22

Station Type Date Time Source
KCYS TAF 2021/05/11 20:21 UTC NOAA

TAF
AMD KCYS 112019Z 1120/1218 17013KT 2SM -SN BR OVC004
FM120000 18008KT 2SM BR VCSH OVC008
FM120300 19008KT 2SM BR OVC004
FM121200 22005KT 1/4SM FG OVC003
FM121500 22010KT 5SM BR OVC003
FM121700 24011KT P6SM BKN015

Example: see airport list